Ganado, Texas
Current Conditions -  °F | °C
As of 7:55 AM on Monday 24 Nov 2014 (Local Time) from KARM Reporting Station
Clear Clear  
Wind Chill: 50°   Ceiling: Unl
Heat Index: 50°   Visibility: 10mi
Dew Point: 41°   Wind: 12mph
Humidity: 71%   Direction: 340°NNW
Pressure: 30.02"   Gusts: 16mph
Location:  29.04°N, 96.51°W
Report Text: KARM 241355Z AUTO 34010G14KT 10SM CLR 10/05 A3002 RMK AO2 T01010050
Loading
Personal Weather Stations






























Interactive Weather Map New forecast layout! Learn more

10-Day Weather Forecast

Advertisements
Track Severe Weather on mobile